createdAt,value
2022-11-29T00:02:12.048Z,8.2
2022-11-29T00:07:11.928Z,8.2
2022-11-29T00:09:41.958Z,8.2
2022-11-29T00:12:11.999Z,8.2
2022-11-29T00:14:42.556Z,8.1
2022-11-29T00:17:12.026Z,8.1
2022-11-29T00:19:42.058Z,8.1
2022-11-29T00:22:12.102Z,8.2
2022-11-29T00:24:42.392Z,8.2
2022-11-29T00:29:42.155Z,8.2
2022-11-29T00:32:12.183Z,8.1
2022-11-29T00:34:42.477Z,8
2022-11-29T00:39:42.237Z,8.1
2022-11-29T00:44:42.697Z,8
2022-11-29T00:47:12.361Z,8
2022-11-29T00:49:42.352Z,8
2022-11-29T00:52:12.359Z,8
2022-11-29T00:57:12.417Z,7.9
2022-11-29T00:59:42.441Z,8
2022-11-29T01:02:12.505Z,8
2022-11-29T01:04:42.745Z,8
2022-11-29T01:07:12.498Z,8
2022-11-29T01:09:42.534Z,8
2022-11-29T01:12:12.569Z,8
2022-11-29T01:14:42.923Z,8
2022-11-29T01:17:12.611Z,8.1
2022-11-29T01:19:47.859Z,8.1
2022-11-29T01:22:12.662Z,8.1
2022-11-29T01:24:42.987Z,8
2022-11-29T01:27:12.690Z,8
2022-11-29T01:29:42.700Z,8.1
2022-11-29T01:32:12.748Z,8.1
2022-11-29T01:34:43.130Z,8.1
2022-11-29T01:39:42.805Z,8
2022-11-29T01:42:12.819Z,8
2022-11-29T01:44:43.227Z,8
2022-11-29T01:49:42.897Z,8.1
2022-11-29T01:52:12.926Z,8.1
2022-11-29T01:54:43.571Z,8.1
2022-11-29T01:57:12.989Z,8.1
2022-11-29T01:59:43.016Z,8.1
2022-11-29T02:02:13.066Z,8.1
2022-11-29T02:04:43.641Z,8.1
2022-11-29T02:07:13.080Z,8.1
2022-11-29T02:09:43.103Z,8.1
2022-11-29T02:12:13.095Z,8.1
2022-11-29T02:14:43.545Z,8
2022-11-29T02:22:13.230Z,8
2022-11-29T02:24:43.638Z,8
2022-11-29T02:27:13.267Z,8.1
2022-11-29T02:29:43.276Z,8.1
2022-11-29T02:34:43.791Z,8.1
2022-11-29T02:37:13.328Z,8.1
2022-11-29T02:39:43.358Z,8.2
2022-11-29T02:42:13.392Z,8.1
2022-11-29T02:44:43.722Z,8.1
2022-11-29T02:47:13.430Z,8.1
2022-11-29T02:49:43.446Z,8.1
2022-11-29T02:52:13.500Z,8
2022-11-29T02:54:43.772Z,8
2022-11-29T02:57:13.542Z,8.1
2022-11-29T02:59:43.533Z,8
2022-11-29T03:02:13.639Z,8
2022-11-29T03:04:43.933Z,8
2022-11-29T03:07:13.618Z,8.1
2022-11-29T03:09:43.663Z,8.1
2022-11-29T03:12:13.687Z,8
2022-11-29T03:14:44.025Z,8
2022-11-29T03:17:13.721Z,8
2022-11-29T03:19:43.752Z,8
2022-11-29T03:22:13.771Z,7.9
2022-11-29T03:24:43.893Z,8
2022-11-29T03:27:13.811Z,8
2022-11-29T03:29:43.854Z,8
2022-11-29T03:32:13.867Z,8
2022-11-29T03:34:44.111Z,7.9
2022-11-29T03:37:13.908Z,8
2022-11-29T03:39:43.940Z,7.9
2022-11-29T03:44:44.266Z,8
2022-11-29T03:47:13.998Z,8
2022-11-29T03:49:44.012Z,8
2022-11-29T03:52:14.047Z,8
2022-11-29T03:54:44.402Z,8
2022-11-29T03:57:14.102Z,8
2022-11-29T03:59:44.110Z,8
2022-11-29T04:04:44.536Z,8
2022-11-29T04:07:14.354Z,8
2022-11-29T04:09:44.220Z,7.9
2022-11-29T04:12:14.236Z,7.9
2022-11-29T04:14:44.635Z,7.9
2022-11-29T04:17:14.302Z,7.9
2022-11-29T04:19:44.326Z,7.9
2022-11-29T04:22:14.319Z,7.9
2022-11-29T04:24:44.588Z,7.8
2022-11-29T04:27:14.389Z,7.9
2022-11-29T04:29:44.418Z,7.9
2022-11-29T04:32:14.461Z,7.9
2022-11-29T04:34:44.775Z,7.9
2022-11-29T04:37:14.459Z,7.9
2022-11-29T04:39:44.501Z,8
2022-11-29T04:42:14.510Z,7.9
2022-11-29T04:44:44.756Z,7.9
2022-11-29T04:47:14.555Z,7.8
2022-11-29T04:49:44.597Z,7.8
2022-11-29T04:52:14.626Z,7.8
2022-11-29T04:54:44.800Z,7.8
2022-11-29T04:57:14.671Z,7.9
2022-11-29T05:02:14.712Z,7.8
2022-11-29T05:07:14.735Z,7.8
2022-11-29T05:09:44.779Z,7.9
2022-11-29T05:14:45.122Z,7.8
2022-11-29T05:17:14.856Z,7.8
2022-11-29T05:19:44.866Z,7.8
2022-11-29T05:22:14.891Z,7.8
2022-11-29T05:27:14.934Z,7.8
2022-11-29T05:29:44.960Z,7.8
2022-11-29T05:32:14.967Z,7.7
2022-11-29T05:34:45.004Z,7.8
2022-11-29T05:39:45.052Z,7.8
2022-11-29T05:42:15.092Z,7.7
2022-11-29T05:44:45.234Z,7.7
2022-11-29T05:47:15.120Z,7.8
2022-11-29T05:49:45.154Z,7.8
2022-11-29T05:52:15.173Z,7.7
2022-11-29T05:57:15.208Z,7.7
2022-11-29T05:59:45.268Z,7.7
2022-11-29T06:02:15.384Z,7.7
2022-11-29T06:04:45.473Z,7.8
2022-11-29T06:07:15.394Z,7.7
2022-11-29T06:09:45.348Z,7.7
2022-11-29T06:12:20.668Z,7.7
2022-11-29T06:14:45.630Z,7.7
2022-11-29T06:19:45.442Z,7.7
2022-11-29T06:22:15.450Z,7.6
2022-11-29T06:32:15.549Z,7.5
2022-11-29T06:34:45.791Z,7.6
2022-11-29T06:37:15.586Z,7.5
2022-11-29T06:39:45.625Z,7.5
2022-11-29T06:42:15.642Z,7.5
2022-11-29T06:44:45.986Z,7.5
2022-11-29T06:47:15.696Z,7.6
2022-11-29T06:49:45.710Z,7.6
2022-11-29T06:52:15.732Z,7.6
2022-11-29T06:54:46.040Z,7.6
2022-11-29T06:59:45.816Z,7.6
2022-11-29T07:04:46.521Z,7.5
2022-11-29T07:12:15.935Z,7.5
2022-11-29T07:14:46.137Z,7.5
2022-11-29T07:17:15.962Z,7.5
2022-11-29T07:19:46.025Z,7.5
2022-11-29T07:22:16.027Z,7.5
2022-11-29T07:27:16.057Z,7.5
2022-11-29T07:29:46.101Z,7.5
2022-11-29T07:32:16.103Z,7.5
2022-11-29T07:34:46.506Z,7.5
2022-11-29T07:37:16.163Z,7.5
2022-11-29T07:39:46.206Z,7.5
2022-11-29T07:42:16.200Z,7.4
2022-11-29T07:44:46.491Z,7.4
2022-11-29T07:49:46.276Z,7.5
2022-11-29T07:54:46.636Z,7.5
2022-11-29T07:57:16.355Z,7.4
2022-11-29T08:02:16.415Z,7.5
2022-11-29T08:04:46.739Z,7.4
2022-11-29T08:07:16.507Z,7.4
2022-11-29T08:09:46.818Z,7.4
2022-11-29T08:12:16.494Z,7.5
2022-11-29T08:14:46.762Z,7.5
2022-11-29T08:17:16.532Z,7.6
2022-11-29T08:22:16.589Z,7.5
2022-11-29T08:24:47.172Z,7.5
2022-11-29T08:27:16.645Z,7.5
2022-11-29T08:29:46.664Z,7.6
2022-11-29T08:34:47.085Z,7.5
2022-11-29T08:37:16.707Z,7.6
2022-11-29T08:39:46.747Z,7.6
2022-11-29T08:42:16.777Z,7.6
2022-11-29T08:44:47.102Z,7.6
2022-11-29T08:49:46.832Z,7.6
2022-11-29T08:52:16.877Z,7.6
2022-11-29T08:54:47.299Z,7.6
2022-11-29T08:57:39.150Z,7.6
2022-11-29T08:59:46.936Z,7.7
2022-11-29T09:07:17.055Z,7.7
2022-11-29T09:14:47.220Z,7.9
2022-11-29T09:17:17.100Z,8
2022-11-29T09:19:47.130Z,8.1
2022-11-29T09:22:17.159Z,7.9
2022-11-29T09:24:47.527Z,7.9
2022-11-29T09:27:17.192Z,7.9
2022-11-29T09:29:47.236Z,8
2022-11-29T09:32:17.233Z,8
2022-11-29T09:34:47.579Z,8
2022-11-29T09:39:47.307Z,8.1
2022-11-29T09:42:17.319Z,8.1
2022-11-29T09:44:47.577Z,8.1
2022-11-29T09:49:47.411Z,8.2
2022-11-29T09:52:17.423Z,8.3
2022-11-29T09:54:47.897Z,8.3
2022-11-29T09:57:17.477Z,8.3
2022-11-29T09:59:47.508Z,8.3
2022-11-29T10:02:21.460Z,8.3
2022-11-29T10:04:47.639Z,8.39
2022-11-29T10:07:17.649Z,8.3
2022-11-29T10:09:47.610Z,8.39
2022-11-29T10:12:17.621Z,8.39
2022-11-29T10:14:47.924Z,8.5
2022-11-29T10:17:17.671Z,8.5
2022-11-29T10:19:47.703Z,8.5
2022-11-29T10:24:47.964Z,8.6
2022-11-29T10:27:17.741Z,8.7
2022-11-29T10:29:47.796Z,8.8
2022-11-29T10:32:17.801Z,8.8
2022-11-29T10:34:47.989Z,8.8
2022-11-29T10:37:17.856Z,8.8
2022-11-29T10:39:47.874Z,8.8
2022-11-29T10:42:17.914Z,8.8
2022-11-29T10:44:47.995Z,9
2022-11-29T10:47:17.951Z,8.89
2022-11-29T10:49:47.957Z,9
2022-11-29T10:52:18.048Z,9
2022-11-29T10:54:48.375Z,8.89
2022-11-29T10:57:18.024Z,9
2022-11-29T10:59:48.064Z,9
2022-11-29T11:02:18.126Z,9.1
2022-11-29T11:04:48.584Z,9.2
2022-11-29T11:09:48.154Z,9.2
2022-11-29T11:12:18.185Z,9.1
2022-11-29T11:14:48.367Z,9.1
2022-11-29T11:17:18.216Z,9.1
2022-11-29T11:19:48.253Z,9.2
2022-11-29T11:22:18.280Z,9.3
2022-11-29T11:24:48.303Z,9.2
2022-11-29T11:27:18.294Z,9.39
2022-11-29T11:29:48.340Z,9.39
2022-11-29T11:32:18.349Z,9.39
2022-11-29T11:37:18.415Z,9.39
2022-11-29T11:39:48.471Z,9.5
2022-11-29T11:42:18.478Z,9.5
2022-11-29T11:44:48.831Z,9.6
2022-11-29T11:49:48.522Z,9.7
2022-11-29T11:52:18.563Z,9.7
2022-11-29T11:54:48.572Z,9.6
2022-11-29T11:57:18.606Z,9.5
2022-11-29T11:59:48.630Z,9.5
2022-11-29T12:02:18.675Z,9.5
2022-11-29T12:04:48.669Z,9.5
2022-11-29T12:07:18.834Z,9.5
2022-11-29T12:09:48.721Z,9.5
2022-11-29T12:12:18.741Z,9.39
2022-11-29T12:17:20.339Z,9.3
2022-11-29T12:19:48.849Z,9.2
2022-11-29T12:22:18.825Z,9.3
2022-11-29T12:24:48.856Z,9.3
2022-11-29T12:29:48.898Z,9.3
2022-11-29T12:32:18.910Z,9.3
2022-11-29T12:39:48.996Z,9.3
2022-11-29T12:42:19.013Z,9.39
2022-11-29T12:44:49.044Z,9.5
2022-11-29T12:49:49.090Z,9.5
2022-11-29T12:52:19.113Z,9.6
2022-11-29T12:54:49.135Z,9.6
2022-11-29T12:57:19.176Z,9.6
2022-11-29T12:59:49.203Z,9.6
2022-11-29T13:04:49.348Z,9.6
2022-11-29T13:07:19.275Z,9.5
2022-11-29T13:09:49.293Z,9.39
2022-11-29T13:12:19.308Z,9.39
2022-11-29T13:17:19.352Z,9.39
2022-11-29T13:19:49.407Z,9.3
2022-11-29T13:22:19.392Z,9.39
2022-11-29T13:27:19.454Z,9.3
2022-11-29T13:29:49.469Z,9.39
2022-11-29T13:42:19.585Z,9.2
2022-11-29T13:44:49.600Z,9.1
2022-11-29T13:52:38.261Z,9.1
2022-11-29T13:54:49.742Z,9.1
2022-11-29T13:57:19.717Z,9.2
2022-11-29T14:02:19.775Z,9.2
2022-11-29T14:04:49.783Z,9.2
2022-11-29T14:07:19.983Z,9.2
2022-11-29T14:09:49.840Z,9.2
2022-11-29T14:12:19.888Z,9.2
2022-11-29T14:14:49.907Z,9.2
2022-11-29T14:17:19.902Z,9.3
2022-11-29T14:19:49.925Z,9.39
2022-11-29T14:22:19.966Z,9.3
2022-11-29T14:24:49.984Z,9.3
2022-11-29T14:27:20.000Z,9.39
2022-11-29T14:29:50.082Z,9.39
2022-11-29T14:32:20.050Z,9.3
2022-11-29T14:37:20.107Z,9.3
2022-11-29T14:39:50.146Z,9.2
2022-11-29T14:54:54.062Z,9.3
2022-11-29T14:57:20.288Z,9.2
2022-11-29T14:59:50.310Z,9.2
2022-11-29T15:02:20.480Z,9.2
2022-11-29T15:04:50.372Z,9.1
2022-11-29T15:07:20.455Z,9.1
2022-11-29T15:09:50.429Z,9.1
2022-11-29T15:12:20.434Z,9.1
2022-11-29T15:17:20.482Z,9
2022-11-29T15:19:50.495Z,9
2022-11-29T15:22:20.531Z,8.89
2022-11-29T15:24:50.573Z,8.89
2022-11-29T15:27:20.590Z,8.89
2022-11-29T15:29:50.590Z,8.89
2022-11-29T15:32:20.635Z,8.89
2022-11-29T15:37:20.684Z,8.8
2022-11-29T15:39:50.703Z,8.8
2022-11-29T15:42:20.704Z,8.8
2022-11-29T15:44:50.744Z,8.7
2022-11-29T15:47:20.772Z,8.8
2022-11-29T15:49:50.795Z,8.7
2022-11-29T15:54:50.815Z,8.7
2022-11-29T15:57:20.852Z,8.7
2022-11-29T15:59:50.904Z,8.7
2022-11-29T16:04:51.202Z,8.7
2022-11-29T16:07:21.001Z,8.7
2022-11-29T16:09:50.973Z,8.6
2022-11-29T16:17:21.049Z,8.6
2022-11-29T16:19:51.054Z,8.6
2022-11-29T16:22:21.094Z,8.6
2022-11-29T16:24:51.152Z,8.6
2022-11-29T16:27:21.114Z,8.6
2022-11-29T16:32:21.178Z,8.6
2022-11-29T16:34:51.188Z,8.6
2022-11-29T16:37:21.216Z,8.6
2022-11-29T16:39:51.256Z,8.6
2022-11-29T16:42:25.244Z,8.6
2022-11-29T16:44:51.276Z,8.6
2022-11-29T16:47:21.302Z,8.5
2022-11-29T16:49:51.346Z,8.5
2022-11-29T16:52:21.374Z,8.5
2022-11-29T16:54:51.369Z,8.6
2022-11-29T16:57:21.421Z,8.5
2022-11-29T16:59:51.446Z,8.5
2022-11-29T17:04:51.476Z,8.6
2022-11-29T17:07:21.574Z,8.6
2022-11-29T17:09:51.528Z,8.6
2022-11-29T17:12:21.553Z,8.5
2022-11-29T17:14:51.574Z,8.6
2022-11-29T17:19:51.612Z,8.5
2022-11-29T17:22:21.663Z,8.6
2022-11-29T17:24:51.963Z,8.6
2022-11-29T17:27:21.682Z,8.6
2022-11-29T17:34:51.786Z,8.6
2022-11-29T17:42:21.834Z,8.6
2022-11-29T17:47:21.878Z,8.6
2022-11-29T17:49:51.899Z,8.6
2022-11-29T17:52:21.959Z,8.6
2022-11-29T17:54:51.961Z,8.6
2022-11-29T17:59:52.008Z,8.6
2022-11-29T18:02:22.103Z,8.6
2022-11-29T18:04:52.045Z,8.6
2022-11-29T18:07:22.143Z,8.6
2022-11-29T18:09:52.093Z,8.6
2022-11-29T18:12:22.118Z,8.6
2022-11-29T18:17:22.157Z,8.7
2022-11-29T18:19:52.183Z,8.6
2022-11-29T18:22:22.195Z,8.7
2022-11-29T18:24:57.708Z,8.6
2022-11-29T18:32:22.312Z,8.6
2022-11-29T18:37:46.137Z,8.7
2022-11-29T18:39:52.375Z,8.7
2022-11-29T18:42:22.412Z,8.7
2022-11-29T18:49:52.480Z,8.7
2022-11-29T18:54:52.512Z,8.7
2022-11-29T18:59:52.576Z,8.7
2022-11-29T19:02:22.593Z,8.7
2022-11-29T19:04:52.613Z,8.7
2022-11-29T19:07:22.716Z,8.7
2022-11-29T19:12:22.696Z,8.7
2022-11-29T19:14:53.114Z,8.7
2022-11-29T19:19:52.750Z,8.7
2022-11-29T19:22:22.849Z,8.7
2022-11-29T19:24:52.796Z,8.7
2022-11-29T19:27:22.829Z,8.7
2022-11-29T19:32:22.863Z,8.7
2022-11-29T19:34:52.883Z,8.8
2022-11-29T19:37:22.899Z,8.7
2022-11-29T19:42:22.966Z,8.8
2022-11-29T19:45:15.954Z,8.8
2022-11-29T19:47:23.012Z,8.7
2022-11-29T19:49:55.807Z,8.8
2022-11-29T19:54:53.073Z,8.7
2022-11-29T19:57:23.091Z,8.7
2022-11-29T19:59:53.132Z,8.7
2022-11-29T20:04:53.180Z,8.7
2022-11-29T20:12:23.250Z,8.7
2022-11-29T20:14:53.283Z,8.6
2022-11-29T20:17:23.304Z,8.6
2022-11-29T20:19:53.406Z,8.6
2022-11-29T20:22:23.354Z,8.5
2022-11-29T20:24:53.375Z,8.5
2022-11-29T20:27:23.378Z,8.5
2022-11-29T20:32:23.429Z,8.5
2022-11-29T20:34:53.624Z,8.39
2022-11-29T20:42:23.534Z,8.1
2022-11-29T20:44:53.555Z,8
2022-11-29T20:47:23.559Z,8
2022-11-29T20:49:53.610Z,7.9
2022-11-29T20:52:23.617Z,7.9
2022-11-29T20:54:53.690Z,7.8
2022-11-29T20:59:53.694Z,7.9
2022-11-29T21:02:23.715Z,7.9
2022-11-29T21:04:53.752Z,7.9
2022-11-29T21:07:23.788Z,7.9
2022-11-29T21:12:23.822Z,8
2022-11-29T21:14:53.848Z,7.9
2022-11-29T21:17:27.542Z,7.9
2022-11-29T21:22:23.905Z,7.8
2022-11-29T21:24:53.975Z,7.8
2022-11-29T21:27:23.959Z,7.9
2022-11-29T21:29:53.974Z,7.8
2022-11-29T21:32:23.997Z,7.8
2022-11-29T21:34:54.060Z,7.8
2022-11-29T21:39:54.071Z,7.8
2022-11-29T21:42:24.106Z,7.8
2022-11-29T21:44:54.130Z,7.7
2022-11-29T21:47:24.167Z,7.7
2022-11-29T21:54:54.219Z,7.7
2022-11-29T21:57:24.237Z,7.7
2022-11-29T22:04:54.319Z,7.6
2022-11-29T22:09:54.350Z,7.6
2022-11-29T22:12:34.144Z,7.6
2022-11-29T22:17:24.412Z,7.5
2022-11-29T22:19:54.451Z,7.5
2022-11-29T22:22:27.922Z,7.4
2022-11-29T22:24:54.484Z,7.4
2022-11-29T22:29:54.553Z,7.4
2022-11-29T22:32:24.576Z,7.4
2022-11-29T22:34:54.584Z,7.4
2022-11-29T22:37:24.623Z,7.3
2022-11-29T22:42:24.646Z,7.2
2022-11-29T22:44:54.681Z,7.2
2022-11-29T22:47:24.717Z,7.2
2022-11-29T22:49:54.726Z,7.2
2022-11-29T22:54:56.752Z,7.1
2022-11-29T22:59:54.839Z,7.1
2022-11-29T23:02:24.901Z,7.2
2022-11-29T23:04:54.864Z,7.2
2022-11-29T23:07:24.903Z,7.2
2022-11-29T23:09:54.929Z,7.2
2022-11-29T23:12:24.944Z,7.1
2022-11-29T23:14:56.484Z,7.1
2022-11-29T23:17:24.997Z,7.1
2022-11-29T23:22:25.102Z,7.1
2022-11-29T23:24:55.055Z,7
2022-11-29T23:27:25.068Z,7.1
2022-11-29T23:29:55.102Z,7.1
2022-11-29T23:32:25.158Z,7.1
2022-11-29T23:37:25.179Z,7.1
2022-11-29T23:42:25.227Z,7.2
2022-11-29T23:44:55.238Z,7.1
2022-11-29T23:47:25.263Z,7.1
2022-11-29T23:54:55.341Z,7.1
2022-11-29T23:57:25.351Z,7.2
